Airfield :







YOU CAN JOIN US ON...

 
LOGIN :

Register | Disclaimer

   EN    FR    IT 

 









Legend :    VFR   Marginal VFR   IFR   Intensive IFR   Very Intensive IFR
Visi :
Ceiling :
>= 8 km
>= 3000ft
5 to 8 km
1000 to 3000 ft
1500m to 5 km
500 to 1000 ft
800 to 1500m
200 to 500 ft
< 800m
< 200 ft
Symbols :   Thunderstorms  Fog  Heavy snow  Heavy precipitations  Wind > 20 kt






- Airport Elevation : 342 ft


KCON - Concord Municipal

CURRENT METAR :
  • 230451Z AUTO 34005KT 10SM CLR 08/04 A2993 RMK AO2 SLP135 T00780044 402110072

EXPIRED METARs :
  • 230351Z AUTO 32005KT 10SM CLR 08/05 A2992 RMK AO2 SLP131 T00830050
  • 230251Z AUTO 21003KT 10SM CLR 08/05 A2992 RMK AO2 SLP133 T00780050 53011

TAF KCON
Valid from the 23 at 00:00 until the 24 at 00:00 UTC


222329Z 2300/2324 30005KT P6SM OVC060
FM231800 29006KT P6SM SCT250
KZBW FIR / North America



MET'MAP, your aeronautical weather chart ! - Copyright ORBIFLY December 2007 - Disclaimer

ORBIFLY MET'MAP TEAM :

Programming & Development : Alexandra Zaïnal
Concept & original design : Baudouin d'Aumeries
Assistance for programming : Marc-Olivier Méhu
Technical & hardware support : Manuel Goepfert

Contact : metmap@orbifly.com




SOURCES & CREDITS :

   NOAA